createdAt,value
2018-01-12T00:00:24.389Z,19.02
2018-01-12T00:02:50.650Z,19.01
2018-01-12T00:05:17.245Z,19.01
2018-01-12T00:07:43.478Z,18.98
2018-01-12T00:10:10.101Z,19.02
2018-01-12T00:12:36.301Z,19.04
2018-01-12T00:15:02.564Z,19.03
2018-01-12T00:17:28.852Z,19.01
2018-01-12T00:19:55.081Z,19.01
2018-01-12T00:22:21.663Z,18.99
2018-01-12T00:24:47.934Z,18.99
2018-01-12T00:27:14.633Z,19.00
2018-01-12T00:29:41.157Z,19.02
2018-01-12T00:32:07.401Z,19.04
2018-01-12T00:34:33.714Z,19.04
2018-01-12T00:36:59.914Z,19.01
2018-01-12T00:39:26.478Z,18.98
2018-01-12T00:41:52.828Z,18.98
2018-01-12T00:44:19.341Z,19.01
2018-01-12T00:46:45.568Z,18.99
2018-01-12T00:49:12.173Z,18.96
2018-01-12T00:51:38.432Z,18.97
2018-01-12T00:54:04.696Z,18.96
2018-01-12T00:56:31.271Z,18.93
2018-01-12T00:58:57.836Z,18.88
2018-01-12T01:01:24.033Z,18.89
2018-01-12T01:03:50.904Z,18.91
2018-01-12T01:06:17.444Z,18.93
2018-01-12T01:08:43.677Z,18.93
2018-01-12T01:11:10.340Z,18.91
2018-01-12T01:13:36.844Z,18.90
2018-01-12T01:16:03.036Z,18.90
2018-01-12T01:18:29.278Z,18.90
2018-01-12T01:20:55.734Z,18.85
2018-01-12T01:23:21.942Z,18.86
2018-01-12T01:25:48.173Z,18.91
2018-01-12T01:28:14.408Z,18.95
2018-01-12T01:30:40.587Z,18.96
2018-01-12T01:33:06.832Z,18.98
2018-01-12T01:35:33.057Z,19.01
2018-01-12T01:37:59.248Z,18.97
2018-01-12T01:40:25.911Z,18.97
2018-01-12T01:42:52.132Z,18.95
2018-01-12T01:45:18.345Z,18.96
2018-01-12T01:47:44.588Z,18.96
2018-01-12T01:50:10.811Z,18.96
2018-01-12T01:52:37.018Z,18.94
2018-01-12T01:55:03.302Z,18.90
2018-01-12T01:57:29.504Z,18.90
2018-01-12T01:59:55.737Z,18.91
2018-01-12T02:02:22.266Z,18.89
2018-01-12T02:04:48.768Z,18.89
2018-01-12T02:07:14.992Z,18.90
2018-01-12T02:09:41.244Z,18.92
2018-01-12T02:12:07.428Z,18.89
2018-01-12T02:14:33.620Z,18.90
2018-01-12T02:17:00.135Z,18.90
2018-01-12T02:19:26.361Z,18.93
2018-01-12T02:21:52.626Z,18.98
2018-01-12T02:24:18.865Z,19.00
2018-01-12T02:26:45.088Z,19.01
2018-01-12T02:29:11.398Z,18.97
2018-01-12T02:31:39.525Z,18.94
2018-01-12T02:34:05.960Z,18.93
2018-01-12T02:36:32.494Z,18.90
2018-01-12T02:38:59.101Z,18.88
2018-01-12T02:41:25.292Z,18.87
2018-01-12T02:43:51.495Z,18.86
2018-01-12T02:46:18.431Z,18.84
2018-01-12T02:48:44.661Z,18.82
2018-01-12T02:51:10.850Z,18.82
2018-01-12T02:53:37.110Z,18.82
2018-01-12T02:56:03.308Z,18.81
2018-01-12T02:58:29.500Z,18.84
2018-01-12T03:00:55.724Z,18.85
2018-01-12T03:03:22.232Z,18.92
2018-01-12T03:05:48.457Z,18.97
2018-01-12T03:08:14.692Z,18.98
2018-01-12T03:10:40.917Z,18.96
2018-01-12T03:13:07.099Z,18.96
2018-01-12T03:15:33.374Z,18.98
2018-01-12T03:17:59.910Z,18.98
2018-01-12T03:20:26.136Z,18.98
2018-01-12T03:22:52.408Z,18.96
2018-01-12T03:25:18.904Z,18.96
2018-01-12T03:27:45.079Z,18.94
2018-01-12T03:30:11.344Z,18.94
2018-01-12T03:32:37.737Z,18.95
2018-01-12T03:35:04.082Z,18.94
2018-01-12T03:37:30.411Z,18.96
2018-01-12T03:39:56.717Z,18.94
2018-01-12T03:42:22.917Z,18.95
2018-01-12T03:44:49.189Z,18.91
2018-01-12T03:47:15.377Z,18.93
2018-01-12T03:49:41.895Z,18.95
2018-01-12T03:52:08.502Z,18.92
2018-01-12T03:54:34.714Z,18.92
2018-01-12T03:57:00.908Z,18.93
2018-01-12T03:59:27.458Z,18.96
2018-01-12T04:01:53.664Z,18.95
2018-01-12T04:04:19.870Z,18.92
2018-01-12T04:06:46.381Z,18.92
2018-01-12T04:09:13.480Z,18.93
2018-01-12T04:11:39.668Z,18.92
2018-01-12T04:14:05.887Z,18.89
2018-01-12T04:16:32.076Z,18.87
2018-01-12T04:18:58.275Z,18.88
2018-01-12T04:21:24.525Z,18.86
2018-01-12T04:23:50.734Z,18.84
2018-01-12T04:26:16.928Z,18.84
2018-01-12T04:28:43.193Z,18.84
2018-01-12T04:31:09.388Z,18.82
2018-01-12T04:33:35.626Z,18.81
2018-01-12T04:36:08.136Z,18.80
2018-01-12T04:38:34.334Z,18.77
2018-01-12T04:41:00.546Z,18.75
2018-01-12T04:43:26.785Z,18.75
2018-01-12T04:45:52.970Z,18.76
2018-01-12T04:48:19.172Z,18.78
2018-01-12T04:50:45.524Z,18.79
2018-01-12T04:53:11.731Z,18.81
2018-01-12T04:55:37.936Z,18.80
2018-01-12T04:58:04.183Z,18.82
2018-01-12T05:00:30.401Z,18.81
2018-01-12T05:02:56.933Z,18.79
2018-01-12T05:05:23.188Z,18.82
2018-01-12T05:07:49.489Z,18.85
2018-01-12T05:10:15.681Z,18.87
2018-01-12T05:12:41.914Z,18.86
2018-01-12T05:15:08.129Z,18.87
2018-01-12T05:17:34.320Z,18.87
2018-01-12T05:20:00.555Z,18.89
2018-01-12T05:22:27.067Z,18.91
2018-01-12T05:24:53.276Z,18.89
2018-01-12T05:27:19.525Z,18.87
2018-01-12T05:29:45.733Z,18.85
2018-01-12T05:32:11.968Z,18.87
2018-01-12T05:34:38.585Z,18.89
2018-01-12T05:37:04.776Z,18.88
2018-01-12T05:39:30.987Z,18.86
2018-01-12T05:41:57.332Z,18.88
2018-01-12T05:44:23.580Z,18.90
2018-01-12T05:46:49.775Z,18.88
2018-01-12T05:49:15.993Z,18.85
2018-01-12T05:51:42.534Z,18.81
2018-01-12T05:54:09.036Z,18.74
2018-01-12T05:56:35.325Z,18.72
2018-01-12T05:59:01.586Z,18.71
2018-01-12T06:01:40.300Z,18.68
2018-01-12T06:04:18.540Z,18.67
2018-01-12T06:06:45.081Z,18.65
2018-01-12T06:09:11.283Z,18.63
2018-01-12T06:11:37.485Z,18.63
2018-01-12T06:14:03.722Z,18.62
2018-01-12T06:16:29.946Z,18.60
2018-01-12T06:18:56.136Z,18.59
2018-01-12T06:21:23.066Z,18.68
2018-01-12T06:23:49.285Z,18.74
2018-01-12T06:26:15.460Z,18.69
2018-01-12T06:28:42.257Z,18.66
2018-01-12T06:31:08.736Z,18.63
2018-01-12T06:33:34.919Z,18.58
2018-01-12T06:36:01.184Z,18.57
2018-01-12T06:38:27.394Z,18.65
2018-01-12T06:40:53.598Z,18.75
2018-01-12T06:43:19.837Z,18.78
2018-01-12T06:45:46.045Z,18.83
2018-01-12T06:48:12.261Z,18.83
2018-01-12T06:50:39.963Z,18.86
2018-01-12T06:53:06.136Z,18.88
2018-01-12T06:55:32.360Z,18.88
2018-01-12T06:57:58.944Z,18.88
2018-01-12T07:00:25.168Z,18.90
2018-01-12T07:02:51.361Z,18.92
2018-01-12T07:05:17.657Z,18.91
2018-01-12T07:07:43.880Z,18.90
2018-01-12T07:10:10.121Z,18.89
2018-01-12T07:12:36.393Z,18.90
2018-01-12T07:15:02.660Z,18.88
2018-01-12T07:17:28.942Z,18.85
2018-01-12T07:19:55.150Z,18.82
2018-01-12T07:22:31.328Z,18.80
2018-01-12T07:24:57.941Z,18.80
2018-01-12T07:27:24.113Z,18.78
2018-01-12T07:29:50.300Z,18.76
2018-01-12T07:32:16.936Z,18.76
2018-01-12T07:34:43.430Z,18.75
2018-01-12T07:37:09.683Z,18.75
2018-01-12T07:39:36.277Z,18.72
2018-01-12T07:42:02.832Z,18.69
2018-01-12T07:44:29.037Z,18.67
2018-01-12T07:46:55.315Z,18.65
2018-01-12T07:49:21.522Z,18.68
2018-01-12T07:51:47.719Z,18.70
2018-01-12T07:54:14.274Z,18.69
2018-01-12T07:56:40.518Z,18.67
2018-01-12T07:59:06.749Z,18.69
2018-01-12T08:01:39.005Z,18.71
2018-01-12T08:04:05.221Z,18.70
2018-01-12T08:06:31.764Z,18.71
2018-01-12T08:08:58.302Z,18.68
2018-01-12T08:11:24.544Z,18.67
2018-01-12T08:13:50.817Z,18.67
2018-01-12T08:16:17.098Z,18.67
2018-01-12T08:18:43.312Z,18.69
2018-01-12T08:21:09.501Z,18.68
2018-01-12T08:23:35.986Z,18.66
2018-01-12T08:26:02.509Z,18.63
2018-01-12T08:28:28.716Z,18.60
2018-01-12T08:30:55.040Z,18.61
2018-01-12T08:33:21.234Z,18.59
2018-01-12T08:35:47.450Z,18.59
2018-01-12T08:38:13.724Z,18.57
2018-01-12T08:40:39.964Z,18.57
2018-01-12T08:43:06.564Z,18.58
2018-01-12T08:45:33.096Z,18.58
2018-01-12T08:47:59.308Z,18.55
2018-01-12T08:50:25.509Z,18.57
2018-01-12T08:52:52.073Z,18.56
2018-01-12T08:55:18.287Z,18.56
2018-01-12T08:57:44.487Z,18.57
2018-01-12T09:00:10.748Z,18.56
2018-01-12T09:02:36.948Z,18.57
2018-01-12T09:05:03.127Z,18.57
2018-01-12T09:07:29.923Z,18.56
2018-01-12T09:09:56.170Z,18.57
2018-01-12T09:12:22.388Z,18.56
2018-01-12T09:14:49.790Z,18.56
2018-01-12T09:17:28.259Z,18.54
2018-01-12T09:20:06.633Z,18.57
2018-01-12T09:22:32.913Z,18.56
2018-01-12T09:24:59.195Z,18.55
2018-01-12T09:27:25.458Z,18.54
2018-01-12T09:29:51.681Z,18.52
2018-01-12T09:32:17.953Z,18.49
2018-01-12T09:35:04.853Z,18.51
2018-01-12T09:37:31.129Z,18.53
2018-01-12T09:40:09.920Z,18.55
2018-01-12T09:42:36.148Z,18.56
2018-01-12T09:45:02.359Z,18.59
2018-01-12T09:47:38.696Z,18.61
2018-01-12T09:50:04.978Z,18.63
2018-01-12T09:52:31.180Z,18.66
2018-01-12T09:54:57.486Z,18.64
2018-01-12T09:57:23.686Z,18.66
2018-01-12T09:59:50.219Z,18.67
2018-01-12T10:02:16.781Z,18.68
2018-01-12T10:04:43.003Z,18.74
2018-01-12T10:07:17.252Z,18.76
2018-01-12T10:09:48.464Z,18.74
2018-01-12T10:12:14.747Z,18.73
2018-01-12T10:14:41.003Z,18.72
2018-01-12T10:17:07.249Z,18.70
2018-01-12T10:19:33.424Z,18.67
2018-01-12T10:21:59.651Z,18.66
2018-01-12T10:24:25.853Z,18.63
2018-01-12T10:26:52.280Z,18.62
2018-01-12T10:29:28.379Z,18.62
2018-01-12T10:31:54.657Z,18.62
2018-01-12T10:34:42.793Z,18.63
2018-01-12T10:37:09.140Z,18.62
2018-01-12T10:39:35.571Z,18.62
2018-01-12T10:42:02.205Z,18.61
2018-01-12T10:44:28.380Z,18.62
2018-01-12T10:47:06.967Z,18.61
2018-01-12T10:49:33.143Z,18.62
2018-01-12T10:52:05.056Z,18.63
2018-01-12T10:54:31.980Z,18.63
2018-01-12T10:56:58.209Z,18.64
2018-01-12T10:59:24.421Z,18.67
2018-01-12T11:01:50.685Z,18.67
2018-01-12T11:04:16.932Z,18.68
2018-01-12T11:06:43.213Z,18.65
2018-01-12T11:09:09.512Z,18.64
2018-01-12T11:11:35.779Z,18.65
2018-01-12T11:14:01.977Z,18.65
2018-01-12T11:16:28.230Z,18.64
2018-01-12T11:18:54.432Z,18.64
2018-01-12T11:21:20.642Z,18.64
2018-01-12T11:23:46.912Z,18.64
2018-01-12T11:26:13.353Z,18.62
2018-01-12T11:28:39.616Z,18.63
2018-01-12T11:31:05.865Z,18.69
2018-01-12T11:33:32.348Z,18.66
2018-01-12T11:35:58.559Z,18.62
2018-01-12T11:38:24.928Z,18.62
2018-01-12T11:40:51.117Z,18.62
2018-01-12T11:43:17.326Z,18.61
2018-01-12T11:45:43.672Z,18.58
2018-01-12T11:48:09.876Z,18.58
2018-01-12T11:50:36.105Z,18.58
2018-01-12T11:53:02.360Z,18.58
2018-01-12T11:55:28.622Z,18.60
2018-01-12T11:57:55.136Z,18.61
2018-01-12T12:00:21.404Z,18.62
2018-01-12T12:02:47.594Z,18.63
2018-01-12T12:05:13.816Z,18.63
2018-01-12T12:07:40.395Z,18.63
2018-01-12T12:10:06.590Z,18.60
2018-01-12T12:12:32.895Z,18.60
2018-01-12T12:14:59.148Z,18.60
2018-01-12T12:17:25.575Z,18.58
2018-01-12T12:19:51.819Z,18.59
2018-01-12T12:22:18.068Z,18.62
2018-01-12T12:24:44.543Z,18.63
2018-01-12T12:27:10.724Z,18.62
2018-01-12T12:29:36.972Z,18.59
2018-01-12T12:32:03.177Z,18.58
2018-01-12T12:34:29.660Z,18.58
2018-01-12T12:36:55.891Z,18.57
2018-01-12T12:39:22.317Z,18.58
2018-01-12T12:41:48.593Z,18.59
2018-01-12T12:44:14.788Z,18.59
2018-01-12T12:46:40.997Z,18.59
2018-01-12T12:49:07.264Z,18.58
2018-01-12T12:51:33.501Z,18.62
2018-01-12T12:53:59.939Z,18.63
2018-01-12T12:56:26.437Z,18.62
2018-01-12T12:58:52.991Z,18.63
2018-01-12T13:01:19.248Z,18.61
2018-01-12T13:03:46.164Z,18.61
2018-01-12T13:06:12.440Z,18.62
2018-01-12T13:08:38.643Z,18.61
2018-01-12T13:11:05.119Z,18.61
2018-01-12T13:13:31.405Z,18.67
2018-01-12T13:15:57.682Z,18.71
2018-01-12T13:18:24.220Z,18.78
2018-01-12T13:20:50.433Z,18.82
2018-01-12T13:23:16.657Z,18.82
2018-01-12T13:25:42.908Z,18.84
2018-01-12T13:28:09.124Z,18.84
2018-01-12T13:30:35.341Z,18.85
2018-01-12T13:33:02.001Z,18.88
2018-01-12T13:35:28.188Z,18.84
2018-01-12T13:37:54.364Z,18.82
2018-01-12T13:40:20.599Z,18.83
2018-01-12T13:42:46.803Z,18.80
2018-01-12T13:45:12.996Z,18.77
2018-01-12T13:47:39.519Z,18.75
2018-01-12T13:50:05.705Z,18.73
2018-01-12T13:52:31.917Z,18.71
2018-01-12T13:54:58.149Z,18.72
2018-01-12T13:57:24.340Z,18.72
2018-01-12T13:59:50.544Z,18.72
2018-01-12T14:02:16.789Z,18.71
2018-01-12T14:04:42.980Z,18.70
2018-01-12T14:07:09.183Z,18.69
2018-01-12T14:09:35.724Z,18.67
2018-01-12T14:12:01.905Z,18.67
2018-01-12T14:14:28.201Z,18.67
2018-01-12T14:16:54.454Z,18.68
2018-01-12T14:19:20.654Z,18.69
2018-01-12T14:21:46.898Z,18.68
2018-01-12T14:24:13.437Z,18.68
2018-01-12T14:26:39.624Z,18.67
2018-01-12T14:29:05.849Z,18.66
2018-01-12T14:31:32.380Z,18.65
2018-01-12T14:33:58.856Z,18.63
2018-01-12T14:36:25.028Z,18.63
2018-01-12T14:38:51.244Z,18.62
2018-01-12T14:41:17.488Z,18.62
2018-01-12T14:43:43.709Z,18.60
2018-01-12T14:46:09.897Z,18.59
2018-01-12T14:48:36.143Z,18.61
2018-01-12T14:51:02.348Z,18.59
2018-01-12T14:53:28.537Z,18.57
2018-01-12T14:55:54.813Z,18.56
2018-01-12T14:58:21.033Z,18.56
2018-01-12T15:00:47.229Z,18.58
2018-01-12T15:03:13.499Z,18.58
2018-01-12T15:05:39.688Z,18.58
2018-01-12T15:08:05.883Z,18.58
2018-01-12T15:10:32.244Z,18.58
2018-01-12T15:12:58.716Z,18.58
2018-01-12T15:15:24.963Z,18.59
2018-01-12T15:17:51.576Z,18.56
2018-01-12T15:20:17.786Z,18.55
2018-01-12T15:22:44.010Z,18.55
2018-01-12T15:25:10.573Z,18.55
2018-01-12T15:27:36.794Z,18.55
2018-01-12T15:30:03.063Z,18.54
2018-01-12T15:32:29.306Z,18.52
2018-01-12T15:34:55.516Z,18.53
2018-01-12T15:37:21.729Z,18.51
2018-01-12T15:39:47.997Z,18.50
2018-01-12T15:42:14.216Z,18.52
2018-01-12T15:44:40.448Z,18.56
2018-01-12T15:47:06.726Z,18.58
2018-01-12T15:49:32.915Z,18.59
2018-01-12T15:51:59.103Z,18.58
2018-01-12T15:54:25.357Z,18.57
2018-01-12T15:56:51.524Z,18.57
2018-01-12T15:59:17.718Z,18.57
2018-01-12T16:01:44.269Z,18.57
2018-01-12T16:04:10.484Z,18.57
2018-01-12T16:06:36.781Z,18.59
2018-01-12T16:09:03.426Z,18.62
2018-01-12T16:11:29.641Z,18.61
2018-01-12T16:13:55.937Z,18.60
2018-01-12T16:16:23.045Z,18.59
2018-01-12T16:18:49.309Z,18.58
2018-01-12T16:21:15.873Z,18.59
2018-01-12T16:23:42.108Z,18.59
2018-01-12T16:26:08.287Z,18.58
2018-01-12T16:28:34.492Z,18.56
2018-01-12T16:31:00.777Z,18.55
2018-01-12T16:33:26.960Z,18.55
2018-01-12T16:35:53.152Z,18.52
2018-01-12T16:38:19.666Z,18.53
2018-01-12T16:40:45.876Z,18.51
2018-01-12T16:43:12.329Z,18.49
2018-01-12T16:45:38.604Z,18.49
2018-01-12T16:48:04.816Z,18.49
2018-01-12T16:50:31.319Z,18.49
2018-01-12T16:52:57.593Z,18.50
2018-01-12T16:55:23.816Z,18.51
2018-01-12T16:57:50.036Z,18.49
2018-01-12T17:00:16.580Z,18.49
2018-01-12T17:02:42.765Z,18.50
2018-01-12T17:05:08.931Z,18.49
2018-01-12T17:07:35.189Z,18.51
2018-01-12T17:10:01.379Z,18.47
2018-01-12T17:12:27.590Z,18.47
2018-01-12T17:14:53.840Z,18.50
2018-01-12T17:17:20.059Z,18.52
2018-01-12T17:19:46.505Z,18.53
2018-01-12T17:22:12.788Z,18.54
2018-01-12T17:24:39.000Z,18.54
2018-01-12T17:27:05.200Z,18.55
2018-01-12T17:29:31.445Z,18.57
2018-01-12T17:31:57.631Z,18.58
2018-01-12T17:34:24.143Z,18.56
2018-01-12T17:36:50.682Z,18.55
2018-01-12T17:39:16.875Z,18.55
2018-01-12T17:41:43.054Z,18.56
2018-01-12T17:44:16.637Z,18.57
2018-01-12T17:46:42.823Z,18.57
2018-01-12T17:49:09.100Z,18.57
2018-01-12T17:51:35.327Z,18.57
2018-01-12T17:54:01.510Z,18.57
2018-01-12T17:56:27.712Z,18.57
2018-01-12T17:58:53.961Z,18.56
2018-01-12T18:01:20.157Z,18.56
2018-01-12T18:03:46.343Z,18.55
2018-01-12T18:06:12.608Z,18.56
2018-01-12T18:08:38.836Z,18.58
2018-01-12T18:11:05.024Z,18.58
2018-01-12T18:13:31.576Z,18.57
2018-01-12T18:15:58.118Z,18.57
2018-01-12T18:18:24.342Z,18.58
2018-01-12T18:20:50.589Z,18.59
2018-01-12T18:23:16.832Z,18.57
2018-01-12T18:25:43.009Z,18.55
2018-01-12T18:28:09.285Z,18.55
2018-01-12T18:30:35.481Z,18.55
2018-01-12T18:33:02.021Z,18.55
2018-01-12T18:35:28.292Z,18.54
2018-01-12T18:37:54.519Z,18.52
2018-01-12T18:40:20.734Z,18.51
2018-01-12T18:42:46.954Z,18.52
2018-01-12T18:45:13.139Z,18.52
2018-01-12T18:47:39.324Z,18.52
2018-01-12T18:50:05.846Z,18.50
2018-01-12T18:52:32.045Z,18.50
2018-01-12T18:54:58.272Z,18.51
2018-01-12T18:57:24.507Z,18.49
2018-01-12T18:59:50.692Z,18.48
2018-01-12T19:02:16.948Z,18.48
2018-01-12T19:04:43.133Z,18.49
2018-01-12T19:07:09.437Z,18.50
2018-01-12T19:09:36.364Z,18.50
2018-01-12T19:12:02.548Z,18.50
2018-01-12T19:14:28.724Z,18.52
2018-01-12T19:16:55.006Z,18.50
2018-01-12T19:19:21.226Z,18.50
2018-01-12T19:21:47.508Z,18.49
2018-01-12T19:24:13.784Z,18.52
2018-01-12T19:26:40.262Z,18.54
2018-01-12T19:29:06.448Z,18.55
2018-01-12T19:31:33.030Z,18.54
2018-01-12T19:33:59.568Z,18.52
2018-01-12T19:36:25.735Z,18.52
2018-01-12T19:38:52.225Z,18.52
2018-01-12T19:41:18.399Z,18.52
2018-01-12T19:43:44.609Z,18.51
2018-01-12T19:46:10.873Z,18.52
2018-01-12T19:48:37.086Z,18.53
2018-01-12T19:51:03.265Z,18.54
2018-01-12T19:53:29.840Z,18.53
2018-01-12T19:55:56.009Z,18.55
2018-01-12T19:58:22.265Z,18.53
2018-01-12T20:00:48.794Z,18.55
2018-01-12T20:03:15.006Z,18.54
2018-01-12T20:05:41.241Z,18.55
2018-01-12T20:08:07.848Z,18.55
2018-01-12T20:10:34.030Z,18.55
2018-01-12T20:13:00.332Z,18.56
2018-01-12T20:15:26.941Z,18.56
2018-01-12T20:17:53.121Z,18.54
2018-01-12T20:20:19.296Z,18.52
2018-01-12T20:22:45.872Z,18.51
2018-01-12T20:25:12.057Z,18.50
2018-01-12T20:27:38.253Z,18.51
2018-01-12T20:30:04.753Z,18.51
2018-01-12T20:32:31.050Z,18.51
2018-01-12T20:34:57.259Z,18.51
2018-01-12T20:37:23.849Z,18.52
2018-01-12T20:39:50.052Z,18.53
2018-01-12T20:42:16.236Z,18.49
2018-01-12T20:44:42.808Z,18.48
2018-01-12T20:47:08.990Z,18.48
2018-01-12T20:49:35.169Z,18.48
2018-01-12T20:52:01.403Z,18.48
2018-01-12T20:54:27.856Z,18.47
2018-01-12T20:56:54.037Z,18.46
2018-01-12T20:59:20.724Z,18.44
2018-01-12T21:01:47.259Z,18.45
2018-01-12T21:04:13.457Z,18.46
2018-01-12T21:06:40.093Z,18.44
2018-01-12T21:09:06.313Z,18.44
2018-01-12T21:11:32.525Z,18.43
2018-01-12T21:13:59.116Z,18.41
2018-01-12T21:16:25.652Z,18.44
2018-01-12T21:18:51.907Z,18.44
2018-01-12T21:21:18.159Z,18.45
2018-01-12T21:23:44.449Z,18.46
2018-01-12T21:26:10.635Z,18.43
2018-01-12T21:28:37.408Z,18.43
2018-01-12T21:31:03.940Z,18.45
2018-01-12T21:33:30.153Z,18.44
2018-01-12T21:35:56.396Z,18.40
2018-01-12T21:38:22.586Z,18.42
2018-01-12T21:40:48.770Z,18.44
2018-01-12T21:43:15.026Z,18.42
2018-01-12T21:45:41.238Z,18.43
2018-01-12T21:48:07.457Z,18.45
2018-01-12T21:50:34.077Z,18.45
2018-01-12T21:53:00.608Z,18.44
2018-01-12T21:55:27.047Z,18.44
2018-01-12T21:57:53.288Z,18.43
2018-01-12T22:00:19.472Z,18.44
2018-01-12T22:02:45.744Z,18.44
2018-01-12T22:05:11.931Z,18.45
2018-01-12T22:07:38.171Z,18.45
2018-01-12T22:10:04.447Z,18.46
2018-01-12T22:12:30.625Z,18.46
2018-01-12T22:14:56.885Z,18.46
2018-01-12T22:17:23.477Z,18.45
2018-01-12T22:19:49.940Z,18.44
2018-01-12T22:22:16.112Z,18.43
2018-01-12T22:24:42.369Z,18.43
2018-01-12T22:27:08.829Z,18.42
2018-01-12T22:29:35.050Z,18.43
2018-01-12T22:32:01.316Z,18.43
2018-01-12T22:34:27.504Z,18.43
2018-01-12T22:36:53.692Z,18.42
2018-01-12T22:39:20.231Z,18.41
2018-01-12T22:41:46.707Z,18.41
2018-01-12T22:44:12.906Z,18.42
2018-01-12T22:46:39.181Z,18.40
2018-01-12T22:49:05.352Z,18.41
2018-01-12T22:51:31.532Z,18.43
2018-01-12T22:53:57.767Z,18.40
2018-01-12T22:56:24.283Z,18.40
2018-01-12T22:58:50.487Z,18.42
2018-01-12T23:01:16.751Z,18.42
2018-01-12T23:03:42.929Z,18.42
2018-01-12T23:06:09.111Z,18.41
2018-01-12T23:08:35.623Z,18.39
2018-01-12T23:11:01.808Z,18.36
2018-01-12T23:13:28.392Z,18.38
2018-01-12T23:15:54.707Z,18.39
2018-01-12T23:18:20.899Z,18.38
2018-01-12T23:20:47.064Z,18.38
2018-01-12T23:23:13.306Z,18.41
2018-01-12T23:25:39.613Z,18.42
2018-01-12T23:28:05.836Z,18.42
2018-01-12T23:30:32.105Z,18.40
2018-01-12T23:32:58.316Z,18.39
2018-01-12T23:35:24.857Z,18.39
2018-01-12T23:37:51.117Z,18.39
2018-01-12T23:40:17.337Z,18.39
2018-01-12T23:42:43.755Z,18.38
2018-01-12T23:45:10.320Z,18.38
2018-01-12T23:47:36.541Z,18.36
2018-01-12T23:50:02.766Z,18.37
2018-01-12T23:52:29.316Z,18.40
2018-01-12T23:54:55.492Z,18.40
2018-01-12T23:57:21.713Z,18.39
2018-01-12T23:59:48.309Z,18.39
